Time;durP1;ratioP1;P1;durP2;ratioP2;P2;SDS_P1;SDS_P2;PMS_P1;PMS_P2;Temp;Humidity;BMP_temperature;BMP_pressure;BME280_temperature;BME280_humidity;BME280_pressure;Samples;Min_cycle;Max_cycle;Signal;HPM_P1;HPM_P2
2022/03/15 00:01:17;;;;;;;15.48;3.78;;;;;;;;;;5002463;28;20029;-78
2022/03/15 00:03:42;;;;;;;11.60;2.55;;;;;;;;;;5016734;28;20039;-80
2022/03/15 00:06:08;;;;;;;15.32;3.08;;;;;;;;;;5019716;28;20398;-78
2022/03/15 00:08:34;;;;;;;14.85;2.67;;;;;;;;;;5019854;28;20056;-78
2022/03/15 00:11:05;;;;;;;9.88;2.75;;;;;;;;;;5010172;28;20124;-78
2022/03/15 00:13:32;;;;;;;8.07;2.20;;;;;;;;;;5003477;28;20025;-79
2022/03/15 00:16:00;;;;;;;12.65;2.42;;;;;;;;;;5014544;28;20037;-78
2022/03/15 00:18:29;;;;;;;14.75;2.05;;;;;;;;;;5022172;28;20699;-78
2022/03/15 00:20:54;;;;;;;6.30;1.70;;;;;;;;;;5017270;28;20044;-78
2022/03/15 00:23:20;;;;;;;5.60;1.95;;;;;;;;;;5018169;28;20038;-78
2022/03/15 00:25:45;;;;;;;5.05;1.83;;;;;;;;;;5008667;28;20025;-78
2022/03/15 00:28:11;;;;;;;5.80;1.55;;;;;;;;;;5005003;28;20033;-78
2022/03/15 00:30:37;;;;;;;10.13;2.00;;;;;;;;;;5013878;28;20025;-78
2022/03/15 00:33:02;;;;;;;10.63;1.90;;;;;;;;;;5021283;28;20136;-78
2022/03/15 00:35:28;;;;;;;8.20;1.77;;;;;;;;;;5003307;28;20025;-79
2022/03/15 00:37:55;;;;;;;11.68;1.95;;;;;;;;;;4979020;28;20440;-78
2022/03/15 00:40:22;;;;;;;8.18;1.70;;;;;;;;;;4989277;28;20033;-79
2022/03/15 00:42:51;;;;;;;9.77;1.27;;;;;;;;;;5007144;28;20036;-79
2022/03/15 00:45:18;;;;;;;15.40;2.15;;;;;;;;;;4987011;28;20022;-78
2022/03/15 00:47:43;;;;;;;11.38;2.80;;;;;;;;;;5020973;28;20035;-78
2022/03/15 00:50:09;;;;;;;12.52;2.67;;;;;;;;;;4989063;28;20037;-78
2022/03/15 00:52:35;;;;;;;12.73;2.33;;;;;;;;;;4987108;28;20037;-78
2022/03/15 00:55:04;;;;;;;11.18;2.65;;;;;;;;;;5005500;28;20028;-78
2022/03/15 00:57:30;;;;;;;10.85;1.90;;;;;;;;;;5004308;28;20490;-78
2022/03/15 00:59:56;;;;;;;10.88;1.85;;;;;;;;;;5016704;28;20041;-78
2022/03/15 01:02:21;;;;;;;17.52;2.58;;;;;;;;;;5018292;28;20033;-80
2022/03/15 01:04:47;;;;;;;11.00;2.38;;;;;;;;;;5017454;28;20049;-78
2022/03/15 01:07:12;;;;;;;9.88;2.08;;;;;;;;;;5003740;28;20430;-78
2022/03/15 01:09:39;;;;;;;20.17;3.10;;;;;;;;;;4970743;28;20049;-78
2022/03/15 01:12:05;;;;;;;16.25;2.58;;;;;;;;;;5008463;28;20351;-78
2022/03/15 01:14:31;;;;;;;15.23;2.03;;;;;;;;;;5005488;28;20184;-78
2022/03/15 01:16:57;;;;;;;12.43;1.77;;;;;;;;;;4991851;28;20117;-78
2022/03/15 01:19:23;;;;;;;14.52;1.17;;;;;;;;;;5007955;28;20133;-78
2022/03/15 01:21:50;;;;;;;14.98;1.65;;;;;;;;;;4992180;28;20640;-78
2022/03/15 01:24:15;;;;;;;9.30;2.25;;;;;;;;;;5011325;28;20029;-79
2022/03/15 01:26:41;;;;;;;6.95;0.73;;;;;;;;;;5004838;28;20021;-78
2022/03/15 01:29:07;;;;;;;9.10;0.90;;;;;;;;;;5003842;28;20300;-78
2022/03/15 01:31:32;;;;;;;11.13;0.68;;;;;;;;;;4994494;28;20053;-78
2022/03/15 01:33:58;;;;;;;6.15;1.23;;;;;;;;;;5018345;28;20041;-78
2022/03/15 01:36:23;;;;;;;5.28;0.47;;;;;;;;;;5020128;28;20034;-79
2022/03/15 01:38:53;;;;;;;8.50;0.65;;;;;;;;;;4989192;28;20107;-80
2022/03/15 01:41:21;;;;;;;8.75;0.80;;;;;;;;;;5004443;28;20559;-78
2022/03/15 01:43:47;;;;;;;8.48;1.48;;;;;;;;;;5009636;28;20044;-79
2022/03/15 01:46:13;;;;;;;6.88;1.23;;;;;;;;;;5025947;28;20021;-78
2022/03/15 01:48:39;;;;;;;9.30;1.02;;;;;;;;;;5000114;28;20029;-78
2022/03/15 01:51:07;;;;;;;8.35;0.80;;;;;;;;;;5018355;28;20109;-78
2022/03/15 01:53:33;;;;;;;11.02;1.25;;;;;;;;;;4988641;28;20037;-78
2022/03/15 01:56:01;;;;;;;6.53;1.05;;;;;;;;;;5011740;28;20048;-78
2022/03/15 01:58:28;;;;;;;4.57;1.08;;;;;;;;;;5022970;28;20075;-79
2022/03/15 02:00:53;;;;;;;8.80;0.80;;;;;;;;;;5008535;28;20029;-79
2022/03/15 02:03:19;;;;;;;1.77;0.70;;;;;;;;;;4976682;28;20037;-79
2022/03/15 02:05:45;;;;;;;4.95;1.15;;;;;;;;;;5026861;28;20017;-80
2022/03/15 02:08:13;;;;;;;6.28;0.52;;;;;;;;;;5013542;28;20133;-78
2022/03/15 02:10:48;;;;;;;3.92;1.10;;;;;;;;;;5026790;28;20072;-78
2022/03/15 02:13:13;;;;;;;6.80;0.82;;;;;;;;;;5002335;28;20042;-79
2022/03/15 02:15:39;;;;;;;4.47;0.65;;;;;;;;;;5027155;28;20044;-79
2022/03/15 02:18:05;;;;;;;6.65;1.00;;;;;;;;;;5006004;28;20063;-79
2022/03/15 02:20:31;;;;;;;2.75;0.60;;;;;;;;;;5006670;28;20576;-80
2022/03/15 02:22:57;;;;;;;2.95;0.77;;;;;;;;;;5005835;28;20111;-79
2022/03/15 02:25:24;;;;;;;4.88;0.40;;;;;;;;;;5003158;28;20034;-79
2022/03/15 02:27:51;;;;;;;9.73;0.50;;;;;;;;;;5011948;28;20041;-79
2022/03/15 02:30:17;;;;;;;3.83;0.40;;;;;;;;;;5007591;28;20112;-79
2022/03/15 02:32:44;;;;;;;1.15;0.20;;;;;;;;;;4973019;28;20145;-79
2022/03/15 02:35:10;;;;;;;3.10;0.55;;;;;;;;;;5008656;28;20033;-79
2022/03/15 02:37:35;;;;;;;4.72;0.43;;;;;;;;;;5018441;28;20048;-79
2022/03/15 02:40:01;;;;;;;9.20;0.70;;;;;;;;;;4971759;28;20042;-80
2022/03/15 02:42:26;;;;;;;5.72;0.60;;;;;;;;;;5014453;28;20112;-79
2022/03/15 02:44:52;;;;;;;7.32;0.50;;;;;;;;;;4996389;28;20374;-78
2022/03/15 02:47:18;;;;;;;0.75;0.20;;;;;;;;;;5023257;28;20053;-80
2022/03/15 02:49:43;;;;;;;3.88;0.55;;;;;;;;;;5024861;28;20036;-79
2022/03/15 02:52:10;;;;;;;1.75;0.30;;;;;;;;;;5001642;28;20033;-79
2022/03/15 02:54:40;;;;;;;5.30;0.68;;;;;;;;;;5021204;28;20025;-79
2022/03/15 02:57:07;;;;;;;5.88;0.73;;;;;;;;;;5024704;28;20048;-79
2022/03/15 02:59:33;;;;;;;8.05;0.63;;;;;;;;;;4989148;28;20068;-79
2022/03/15 03:01:59;;;;;;;4.25;0.40;;;;;;;;;;5002659;28;20033;-79
2022/03/15 03:04:24;;;;;;;5.47;0.40;;;;;;;;;;5007872;28;20120;-81
2022/03/15 03:06:53;;;;;;;6.38;0.40;;;;;;;;;;5008859;28;20135;-79
2022/03/15 03:09:18;;;;;;;4.50;0.28;;;;;;;;;;5005760;28;20067;-79
2022/03/15 03:11:44;;;;;;;8.98;0.50;;;;;;;;;;5002836;28;20531;-78
2022/03/15 03:14:12;;;;;;;1.05;0.40;;;;;;;;;;5004582;28;20034;-78
2022/03/15 03:16:39;;;;;;;1.48;0.38;;;;;;;;;;4991767;28;20033;-78
2022/03/15 03:19:08;;;;;;;2.72;0.45;;;;;;;;;;5007448;28;20398;-79
2022/03/15 03:21:38;;;;;;;4.47;0.50;;;;;;;;;;5001611;28;20033;-81
2022/03/15 03:24:09;;;;;;;4.13;0.30;;;;;;;;;;5018222;28;20021;-81
2022/03/15 03:26:38;;;;;;;5.57;0.60;;;;;;;;;;5002496;28;20084;-79
2022/03/15 03:29:12;;;;;;;5.90;0.40;;;;;;;;;;5001940;28;20021;-79
2022/03/15 03:31:43;;;;;;;2.15;0.50;;;;;;;;;;5004353;28;20038;-79
2022/03/15 03:34:10;;;;;;;7.97;0.90;;;;;;;;;;5000758;28;20030;-79
2022/03/15 03:36:38;;;;;;;6.65;1.20;;;;;;;;;;5009779;28;20056;-79
2022/03/15 03:39:05;;;;;;;5.13;0.77;;;;;;;;;;5005101;28;20048;-82
2022/03/15 03:41:31;;;;;;;3.83;0.52;;;;;;;;;;5009227;28;20029;-81
2022/03/15 03:43:59;;;;;;;5.97;0.55;;;;;;;;;;5018682;28;20067;-80
2022/03/15 03:46:27;;;;;;;2.15;0.45;;;;;;;;;;5001989;28;20021;-78
2022/03/15 03:48:54;;;;;;;8.38;0.90;;;;;;;;;;4998171;28;20025;-80
2022/03/15 03:51:22;;;;;;;8.77;0.57;;;;;;;;;;4989505;28;20041;-78
2022/03/15 03:53:49;;;;;;;2.53;0.30;;;;;;;;;;4992013;28;20261;-81
2022/03/15 03:56:25;;;;;;;3.85;0.80;;;;;;;;;;4991603;28;20076;-79
2022/03/15 03:58:54;;;;;;;6.50;1.05;;;;;;;;;;4983123;28;20032;-79
2022/03/15 04:01:20;;;;;;;4.18;0.60;;;;;;;;;;5003293;28;20053;-80
2022/03/15 04:03:59;;;;;;;14.57;1.05;;;;;;;;;;4989851;28;20482;-80
2022/03/15 04:06:54;;;;;;;7.78;0.85;;;;;;;;;;4975616;28;20080;-80
2022/03/15 04:09:20;;;;;;;2.33;0.50;;;;;;;;;;4997345;28;22335;-78
2022/03/15 04:11:48;;;;;;;3.30;0.50;;;;;;;;;;4985917;28;20038;-78
2022/03/15 04:14:14;;;;;;;6.25;0.75;;;;;;;;;;4989730;28;20030;-79
2022/03/15 04:19:21;;;;;;;1.85;0.50;;;;;;;;;;2915653;26;20042;-82
2022/03/15 04:21:47;;;;;;;7.45;0.80;;;;;;;;;;4990658;28;20042;-83
2022/03/15 04:24:14;;;;;;;1.67;0.52;;;;;;;;;;4982496;28;20125;-83
2022/03/15 04:26:41;;;;;;;4.65;0.55;;;;;;;;;;4978539;28;20019;-84
2022/03/15 04:29:06;;;;;;;6.22;0.60;;;;;;;;;;4989731;28;20562;-83
2022/03/15 04:31:32;;;;;;;4.22;0.50;;;;;;;;;;4992763;28;20064;-85
2022/03/15 04:33:58;;;;;;;2.38;0.40;;;;;;;;;;4985412;28;20038;-83
2022/03/15 04:36:23;;;;;;;4.32;0.40;;;;;;;;;;4966495;28;20048;-84
2022/03/15 04:38:49;;;;;;;2.63;0.32;;;;;;;;;;4972528;28;20471;-83
2022/03/15 04:41:15;;;;;;;2.35;0.38;;;;;;;;;;4992190;28;20082;-83
2022/03/15 04:43:40;;;;;;;26.15;1.40;;;;;;;;;;4954883;28;20476;-83
2022/03/15 04:46:06;;;;;;;4.45;0.40;;;;;;;;;;4962930;28;20038;-84
2022/03/15 04:48:32;;;;;;;7.18;0.45;;;;;;;;;;4988929;28;20126;-82
2022/03/15 04:50:58;;;;;;;1.73;0.40;;;;;;;;;;4975931;28;20454;-82
2022/03/15 04:53:23;;;;;;;2.88;0.45;;;;;;;;;;5009712;28;22782;-87
2022/03/15 04:55:49;;;;;;;3.03;0.30;;;;;;;;;;4960057;28;20057;-88
2022/03/15 04:58:14;;;;;;;2.42;0.40;;;;;;;;;;4976715;28;20067;-88
2022/03/15 05:00:40;;;;;;;1.00;0.30;;;;;;;;;;5001626;28;20030;-87
2022/03/15 05:03:06;;;;;;;4.15;0.20;;;;;;;;;;4979836;28;20030;-88
2022/03/15 05:05:31;;;;;;;2.28;0.20;;;;;;;;;;4996171;28;20725;-88
2022/03/15 05:07:57;;;;;;;1.20;0.10;;;;;;;;;;5006101;28;20553;-88
2022/03/15 05:13:07;;;;;;;1.85;0.50;;;;;;;;;;5011093;28;20049;-88
2022/03/15 05:15:33;;;;;;;3.28;0.38;;;;;;;;;;4996767;28;20386;-88
2022/03/15 05:18:01;;;;;;;1.95;0.17;;;;;;;;;;4987793;28;20043;-88
2022/03/15 05:20:28;;;;;;;3.28;0.55;;;;;;;;;;5001398;28;20046;-88
2022/03/15 05:22:54;;;;;;;4.38;0.30;;;;;;;;;;5001498;28;20033;-91
2022/03/15 05:25:19;;;;;;;2.22;0.88;;;;;;;;;;4992288;28;20035;-89
2022/03/15 05:27:45;;;;;;;1.00;0.10;;;;;;;;;;5007779;28;20049;-89
2022/03/15 05:30:11;;;;;;;2.10;0.10;;;;;;;;;;4978184;28;20105;-90
2022/03/15 05:32:37;;;;;;;1.08;0.00;;;;;;;;;;4990111;28;20041;-83
2022/03/15 05:35:04;;;;;;;1.80;0.10;;;;;;;;;;5003600;28;20029;-82
2022/03/15 05:37:29;;;;;;;0.80;0.20;;;;;;;;;;5006131;28;20527;-89
2022/03/15 05:39:55;;;;;;;0.75;0.00;;;;;;;;;;4990149;28;20029;-89
2022/03/15 05:42:21;;;;;;;0.50;0.00;;;;;;;;;;4989395;28;20125;-89
2022/03/15 05:44:47;;;;;;;0.10;0.00;;;;;;;;;;5003404;28;20034;-89
2022/03/15 05:47:13;;;;;;;0.40;0.08;;;;;;;;;;5009796;28;20033;-90
2022/03/15 05:49:39;;;;;;;1.50;0.10;;;;;;;;;;5004288;28;20025;-90
2022/03/15 05:52:05;;;;;;;0.45;0.00;;;;;;;;;;5009263;28;20122;-89
2022/03/15 05:54:32;;;;;;;0.93;0.00;;;;;;;;;;5009801;28;20030;-88
2022/03/15 05:56:57;;;;;;;1.52;0.10;;;;;;;;;;4990108;28;20080;-88
2022/03/15 05:59:23;;;;;;;1.13;0.17;;;;;;;;;;4997857;28;20033;-88
2022/03/15 06:01:48;;;;;;;2.85;0.20;;;;;;;;;;4990201;28;20398;-88
2022/03/15 06:04:14;;;;;;;2.30;0.40;;;;;;;;;;4996184;28;20042;-89
2022/03/15 06:06:40;;;;;;;3.90;0.30;;;;;;;;;;5004542;28;20021;-88
2022/03/15 06:09:05;;;;;;;1.02;0.10;;;;;;;;;;4996101;28;20034;-89
2022/03/15 06:11:32;;;;;;;5.10;0.40;;;;;;;;;;4983600;28;20056;-88
2022/03/15 06:13:58;;;;;;;3.08;0.10;;;;;;;;;;5021439;28;20070;-88
2022/03/15 06:16:24;;;;;;;0.68;0.00;;;;;;;;;;5007149;28;20041;-88
2022/03/15 06:18:50;;;;;;;4.60;0.20;;;;;;;;;;5003085;28;20042;-88
2022/03/15 06:21:17;;;;;;;3.15;0.65;;;;;;;;;;4992913;28;20402;-86
2022/03/15 06:23:42;;;;;;;1.25;0.10;;;;;;;;;;4990187;28;20059;-87
2022/03/15 06:26:09;;;;;;;5.45;0.20;;;;;;;;;;4977899;28;20030;-89
2022/03/15 06:28:35;;;;;;;1.50;0.20;;;;;;;;;;4995685;28;20030;-88
2022/03/15 06:31:02;;;;;;;2.92;0.40;;;;;;;;;;4997481;28;20049;-90
2022/03/15 06:33:27;;;;;;;1.08;0.17;;;;;;;;;;5006130;28;20490;-90
2022/03/15 06:35:53;;;;;;;4.88;0.17;;;;;;;;;;5006321;28;20091;-91
2022/03/15 06:38:19;;;;;;;1.00;0.20;;;;;;;;;;5010342;28;20026;-83
2022/03/15 06:40:44;;;;;;;2.97;0.20;;;;;;;;;;5014263;28;20025;-90
2022/03/15 06:43:12;;;;;;;8.20;1.77;;;;;;;;;;5005476;28;20045;-89
2022/03/15 06:45:38;;;;;;;4.47;0.20;;;;;;;;;;4992396;28;20030;-85
2022/03/15 06:48:04;;;;;;;0.40;0.20;;;;;;;;;;5001733;28;20029;-89
2022/03/15 06:50:30;;;;;;;3.70;0.17;;;;;;;;;;4993864;28;20570;-88
2022/03/15 06:52:56;;;;;;;1.13;0.13;;;;;;;;;;4986605;28;20042;-89
2022/03/15 06:55:21;;;;;;;3.20;0.20;;;;;;;;;;5004618;28;20033;-89
2022/03/15 06:57:47;;;;;;;0.30;0.10;;;;;;;;;;4990803;28;20878;-89
2022/03/15 07:00:14;;;;;;;1.60;0.00;;;;;;;;;;5010271;28;20064;-88
2022/03/15 07:02:40;;;;;;;1.40;0.08;;;;;;;;;;5023842;28;20546;-89
2022/03/15 07:05:09;;;;;;;1.40;0.13;;;;;;;;;;5005819;28;20025;-89
2022/03/15 07:07:35;;;;;;;0.13;0.10;;;;;;;;;;4993940;28;20034;-89
2022/03/15 07:10:05;;;;;;;2.40;0.32;;;;;;;;;;4991620;28;20310;-89
2022/03/15 07:12:34;;;;;;;3.33;0.32;;;;;;;;;;5007414;28;20032;-88
2022/03/15 07:15:02;;;;;;;2.75;0.38;;;;;;;;;;5009386;28;20083;-88
2022/03/15 07:17:29;;;;;;;2.50;0.10;;;;;;;;;;5003240;28;20144;-88
2022/03/15 07:19:58;;;;;;;0.90;0.10;;;;;;;;;;4985536;28;20115;-84
2022/03/15 07:22:24;;;;;;;3.97;0.45;;;;;;;;;;5008212;28;20030;-86
2022/03/15 07:24:53;;;;;;;3.70;0.10;;;;;;;;;;5012153;28;20035;-87
2022/03/15 07:27:19;;;;;;;1.13;0.30;;;;;;;;;;5005430;28;20092;-84
2022/03/15 07:29:45;;;;;;;2.17;0.13;;;;;;;;;;4996211;28;20434;-85
2022/03/15 07:32:11;;;;;;;1.17;0.13;;;;;;;;;;5000583;28;20034;-85
2022/03/15 07:34:37;;;;;;;5.93;0.40;;;;;;;;;;4973804;28;20088;-88
2022/03/15 07:37:04;;;;;;;6.05;1.42;;;;;;;;;;4990846;28;20058;-87
2022/03/15 07:39:30;;;;;;;2.83;0.82;;;;;;;;;;4997071;28;20623;-87
2022/03/15 07:41:57;;;;;;;3.72;0.35;;;;;;;;;;5004092;28;20033;-87
2022/03/15 07:44:23;;;;;;;0.73;0.10;;;;;;;;;;5001603;28;20088;-87
2022/03/15 07:46:48;;;;;;;3.28;0.45;;;;;;;;;;5017755;28;20108;-88
2022/03/15 07:49:19;;;;;;;5.25;0.20;;;;;;;;;;4996251;28;20116;-87
2022/03/15 07:51:46;;;;;;;2.92;0.68;;;;;;;;;;4988651;28;20400;-87
2022/03/15 07:54:15;;;;;;;1.70;0.10;;;;;;;;;;5000843;28;20517;-88
2022/03/15 07:56:41;;;;;;;0.95;0.30;;;;;;;;;;4988182;28;20128;-88
2022/03/15 07:59:13;;;;;;;2.70;0.40;;;;;;;;;;4994007;28;20054;-88
2022/03/15 08:01:39;;;;;;;2.72;0.30;;;;;;;;;;4990020;28;20497;-88
2022/03/15 08:04:05;;;;;;;1.13;0.20;;;;;;;;;;5001551;28;20040;-87
2022/03/15 08:06:31;;;;;;;1.33;0.20;;;;;;;;;;4999757;28;20021;-87
2022/03/15 08:08:58;;;;;;;1.10;0.10;;;;;;;;;;4983960;28;20034;-88
2022/03/15 08:11:26;;;;;;;4.88;0.30;;;;;;;;;;4998961;28;20068;-88
2022/03/15 08:14:34;;;;;;;3.67;0.22;;;;;;;;;;5003344;28;20122;-89
2022/03/15 08:17:00;;;;;;;5.15;0.68;;;;;;;;;;4933827;29;20083;-89
2022/03/15 08:19:26;;;;;;;2.67;0.50;;;;;;;;;;4983086;28;20042;-89
2022/03/15 08:22:02;;;;;;;3.40;0.30;;;;;;;;;;5014490;28;20053;-88
2022/03/15 08:24:28;;;;;;;2.30;0.30;;;;;;;;;;4995566;28;20037;-89
2022/03/15 08:26:56;;;;;;;5.40;0.20;;;;;;;;;;4998826;28;20025;-87
2022/03/15 08:29:22;;;;;;;1.13;0.20;;;;;;;;;;5004460;28;20034;-89
2022/03/15 08:31:50;;;;;;;3.13;0.28;;;;;;;;;;4995384;28;20979;-90
2022/03/15 08:34:18;;;;;;;3.47;0.50;;;;;;;;;;4992141;28;20033;-89
2022/03/15 08:36:44;;;;;;;4.90;0.40;;;;;;;;;;5008758;28;20029;-88
2022/03/15 08:39:10;;;;;;;1.75;0.22;;;;;;;;;;5007097;28;20037;-87
2022/03/15 08:41:40;;;;;;;3.22;0.40;;;;;;;;;;4992086;28;20099;-90
2022/03/15 08:44:06;;;;;;;3.53;0.15;;;;;;;;;;4995742;28;20029;-82
2022/03/15 08:46:32;;;;;;;1.67;0.30;;;;;;;;;;5007247;28;20025;-89
2022/03/15 08:48:57;;;;;;;4.30;0.35;;;;;;;;;;5009613;28;20494;-90
2022/03/15 08:51:23;;;;;;;2.25;0.30;;;;;;;;;;4993184;28;20059;-91
2022/03/15 08:53:48;;;;;;;8.27;0.65;;;;;;;;;;5022046;28;20029;-90
2022/03/15 08:56:14;;;;;;;4.72;0.43;;;;;;;;;;5016926;28;20061;-89
2022/03/15 08:58:40;;;;;;;5.43;0.60;;;;;;;;;;4997809;28;20036;-91
2022/03/15 09:01:06;;;;;;;14.55;0.70;;;;;;;;;;5015216;28;20025;-89
2022/03/15 09:03:34;;;;;;;3.95;0.28;;;;;;;;;;5011168;28;20076;-90
2022/03/15 09:06:08;;;;;;;5.15;0.30;;;;;;;;;;4998808;28;20104;-90
2022/03/15 09:08:39;;;;;;;3.97;0.47;;;;;;;;;;5005798;28;20084;-92
2022/03/15 09:11:05;;;;;;;11.98;1.23;;;;;;;;;;5011558;28;20081;-90
2022/03/15 09:13:34;;;;;;;6.40;0.80;;;;;;;;;;5006930;28;20658;-89
2022/03/15 09:16:02;;;;;;;2.25;0.50;;;;;;;;;;5007086;28;20037;-90
2022/03/15 09:18:34;;;;;;;2.85;0.50;;;;;;;;;;5003345;28;20046;-91
2022/03/15 09:21:00;;;;;;;15.73;1.02;;;;;;;;;;5007106;28;20129;-89
2022/03/15 09:23:26;;;;;;;1.95;0.52;;;;;;;;;;4984801;28;20773;-87
2022/03/15 09:25:54;;;;;;;6.07;0.20;;;;;;;;;;4988545;28;20080;-88
2022/03/15 09:28:20;;;;;;;4.60;0.20;;;;;;;;;;4978773;28;20049;-89
2022/03/15 09:30:46;;;;;;;3.50;0.30;;;;;;;;;;4987715;28;20021;-85
2022/03/15 09:33:19;;;;;;;7.10;0.65;;;;;;;;;;5002134;28;20511;-88
2022/03/15 09:35:45;;;;;;;4.13;0.40;;;;;;;;;;5010063;28;20038;-88
2022/03/15 09:38:14;;;;;;;2.45;0.30;;;;;;;;;;4968791;28;20026;-88
2022/03/15 09:40:40;;;;;;;4.53;0.43;;;;;;;;;;4976769;28;20029;-86
2022/03/15 09:43:11;;;;;;;3.33;0.40;;;;;;;;;;4987276;28;20053;-87
2022/03/15 09:45:37;;;;;;;4.60;0.30;;;;;;;;;;4985021;28;20459;-88
2022/03/15 09:48:11;;;;;;;2.35;0.25;;;;;;;;;;4989803;28;20030;-87
2022/03/15 09:50:46;;;;;;;5.22;0.75;;;;;;;;;;4995991;28;20061;-88
2022/03/15 09:53:15;;;;;;;2.90;0.30;;;;;;;;;;4990410;28;20037;-87
2022/03/15 09:55:45;;;;;;;4.22;0.50;;;;;;;;;;5004957;28;20038;-88
2022/03/15 09:58:22;;;;;;;5.05;0.30;;;;;;;;;;4990631;28;20042;-88
2022/03/15 10:01:02;;;;;;;4.53;0.40;;;;;;;;;;4985119;28;20030;-87
2022/03/15 10:03:29;;;;;;;3.63;0.43;;;;;;;;;;4990474;28;20050;-87
2022/03/15 10:06:02;;;;;;;0.98;0.15;;;;;;;;;;4984834;28;20018;-87
2022/03/15 10:08:39;;;;;;;6.45;0.47;;;;;;;;;;4991452;28;20025;-87
2022/03/15 10:11:07;;;;;;;3.33;0.15;;;;;;;;;;4990089;28;20029;-86
2022/03/15 10:13:43;;;;;;;6.65;0.60;;;;;;;;;;4974752;28;20138;-87
2022/03/15 10:16:15;;;;;;;10.25;0.70;;;;;;;;;;4988039;28;20031;-88
2022/03/15 10:19:02;;;;;;;6.50;0.40;;;;;;;;;;4997290;28;20064;-86
2022/03/15 10:21:50;;;;;;;3.13;0.35;;;;;;;;;;4980601;28;20390;-89
2022/03/15 10:24:18;;;;;;;7.60;0.40;;;;;;;;;;4995051;28;20075;-90
2022/03/15 10:26:47;;;;;;;16.05;0.43;;;;;;;;;;4987828;28;20018;-88
2022/03/15 10:29:14;;;;;;;6.70;0.30;;;;;;;;;;4975330;28;20042;-88
2022/03/15 10:31:39;;;;;;;4.25;0.50;;;;;;;;;;4987352;28;20026;-90
2022/03/15 10:34:07;;;;;;;4.15;0.30;;;;;;;;;;4970607;28;20030;-89
2022/03/15 10:36:51;;;;;;;7.40;0.60;;;;;;;;;;4979152;28;20033;-86
2022/03/15 10:39:19;;;;;;;6.22;0.45;;;;;;;;;;4984376;28;20026;-89
2022/03/15 10:41:59;;;;;;;5.68;0.55;;;;;;;;;;4988852;28;20042;-90
2022/03/15 10:44:38;;;;;;;4.38;0.50;;;;;;;;;;5002249;28;20332;-90
2022/03/15 10:47:15;;;;;;;4.32;0.50;;;;;;;;;;5018472;28;20057;-89
2022/03/15 10:49:49;;;;;;;11.00;0.85;;;;;;;;;;4968456;28;20046;-80
2022/03/15 10:52:29;;;;;;;5.68;0.50;;;;;;;;;;4982199;28;20084;-81
2022/03/15 10:54:54;;;;;;;8.10;0.50;;;;;;;;;;4986183;28;20030;-81
2022/03/15 10:57:20;;;;;;;7.35;0.68;;;;;;;;;;4971667;28;20038;-80
2022/03/15 10:59:47;;;;;;;9.63;0.73;;;;;;;;;;4966419;28;20034;-82
2022/03/15 11:02:13;;;;;;;9.70;0.57;;;;;;;;;;5003305;28;20069;-81
2022/03/15 11:04:46;;;;;;;6.43;0.60;;;;;;;;;;4973603;28;20069;-81
2022/03/15 11:07:13;;;;;;;9.75;0.50;;;;;;;;;;5007151;28;20172;-89
2022/03/15 11:09:38;;;;;;;4.30;0.50;;;;;;;;;;4956442;28;20088;-89
2022/03/15 11:12:07;;;;;;;5.28;0.75;;;;;;;;;;5000950;28;20030;-89
2022/03/15 11:14:39;;;;;;;15.30;1.55;;;;;;;;;;4989652;28;20060;-89
2022/03/15 11:17:16;;;;;;;11.60;1.17;;;;;;;;;;4967447;28;20106;-90
2022/03/15 11:19:53;;;;;;;11.15;2.00;;;;;;;;;;4995213;28;20503;-90
2022/03/15 11:22:21;;;;;;;7.80;0.73;;;;;;;;;;5000045;28;20037;-90
2022/03/15 11:25:14;;;;;;;9.70;0.80;;;;;;;;;;5010836;28;20030;-91
2022/03/15 11:27:44;;;;;;;11.48;1.23;;;;;;;;;;4989942;28;20033;-91
2022/03/15 11:30:15;;;;;;;8.70;0.57;;;;;;;;;;5011446;28;20108;-89
2022/03/15 11:32:42;;;;;;;2.95;0.85;;;;;;;;;;5001143;28;20041;-90
2022/03/15 11:35:10;;;;;;;4.88;0.50;;;;;;;;;;4993732;28;20029;-90
2022/03/15 11:37:37;;;;;;;6.65;0.77;;;;;;;;;;5020159;28;20025;-90
2022/03/15 11:40:09;;;;;;;11.60;1.10;;;;;;;;;;5006251;28;20026;-90
2022/03/15 11:42:35;;;;;;;;;;;;;;;;;;5002414;28;20103;-90
2022/03/15 11:45:26;;;;;;;4.90;0.60;;;;;;;;;;5006425;28;19920;-90
2022/03/15 11:48:13;;;;;;;6.47;0.40;;;;;;;;;;5013266;28;20601;-91
2022/03/15 11:50:42;;;;;;;3.67;0.40;;;;;;;;;;5009462;28;20506;-89
2022/03/15 11:53:39;;;;;;;6.35;0.70;;;;;;;;;;5016058;28;20033;-89
2022/03/15 11:56:34;;;;;;;7.93;0.77;;;;;;;;;;4999827;28;20057;-89
2022/03/15 11:59:00;;;;;;;16.52;0.80;;;;;;;;;;4994233;28;20034;-91
2022/03/15 12:01:28;;;;;;;8.68;0.68;;;;;;;;;;4991907;28;20044;-91
2022/03/15 12:03:57;;;;;;;4.93;1.00;;;;;;;;;;5005126;28;20523;-91
2022/03/15 12:06:30;;;;;;;5.70;0.77;;;;;;;;;;5005799;28;20029;-91
2022/03/15 12:08:58;;;;;;;5.35;0.50;;;;;;;;;;5011052;28;20036;-92
2022/03/15 12:11:39;;;;;;;6.47;1.10;;;;;;;;;;5020628;28;20068;-92
2022/03/15 12:14:19;;;;;;;5.50;0.82;;;;;;;;;;5023468;28;20036;-92
2022/03/15 12:16:50;;;;;;;4.35;0.45;;;;;;;;;;5017516;28;20156;-90
2022/03/15 12:19:35;;;;;;;11.33;0.70;;;;;;;;;;4993844;28;20054;-90
2022/03/15 12:22:06;;;;;;;2.72;0.38;;;;;;;;;;5021414;28;20336;-90
2022/03/15 12:24:40;;;;;;;4.80;0.70;;;;;;;;;;4999169;28;20026;-90
2022/03/15 12:27:15;;;;;;;10.65;0.85;;;;;;;;;;4998876;28;20502;-87
2022/03/15 12:29:51;;;;;;;4.80;1.02;;;;;;;;;;5011286;28;20104;-89
2022/03/15 12:32:18;;;;;;;6.55;0.65;;;;;;;;;;4999210;28;20439;-88
2022/03/15 12:34:45;;;;;;;4.63;0.65;;;;;;;;;;5016269;28;20117;-87
2022/03/15 12:37:11;;;;;;;5.32;0.52;;;;;;;;;;5015780;28;20033;-90
2022/03/15 12:39:40;;;;;;;6.53;0.77;;;;;;;;;;4997889;28;20017;-89
2022/03/15 12:42:08;;;;;;;6.05;0.70;;;;;;;;;;4967835;28;20054;-88
2022/03/15 12:44:59;;;;;;;5.43;0.60;;;;;;;;;;5002603;28;20130;-90
2022/03/15 12:47:33;;;;;;;2.70;0.43;;;;;;;;;;5003940;28;20378;-88
2022/03/15 12:50:06;;;;;;;12.75;1.05;;;;;;;;;;5018242;28;20026;-89
2022/03/15 12:52:59;;;;;;;5.90;0.75;;;;;;;;;;5003888;28;20026;-89
2022/03/15 12:55:30;;;;;;;8.73;1.00;;;;;;;;;;4992113;28;20036;-80
2022/03/15 12:58:01;;;;;;;6.38;0.68;;;;;;;;;;5005352;28;20037;-82
2022/03/15 13:00:30;;;;;;;6.70;0.77;;;;;;;;;;5023115;28;20029;-80
2022/03/15 13:02:56;;;;;;;5.93;0.50;;;;;;;;;;5014666;28;20053;-87
2022/03/15 13:05:23;;;;;;;4.93;0.88;;;;;;;;;;5017929;28;20026;-90
2022/03/15 13:07:51;;;;;;;8.30;0.95;;;;;;;;;;5003104;28;20034;-89
2022/03/15 13:10:26;;;;;;;6.32;0.60;;;;;;;;;;4991102;28;20107;-88
2022/03/15 13:12:53;;;;;;;5.68;0.82;;;;;;;;;;5004956;28;20022;-90
2022/03/15 13:15:20;;;;;;;6.18;0.77;;;;;;;;;;4987167;28;20045;-89
2022/03/15 13:17:50;;;;;;;8.75;0.70;;;;;;;;;;5006784;28;20060;-86
2022/03/15 13:20:42;;;;;;;4.13;0.60;;;;;;;;;;5019516;28;20050;-91
2022/03/15 13:23:16;;;;;;;3.92;0.63;;;;;;;;;;4981336;28;20050;-90
2022/03/15 13:25:46;;;;;;;8.15;0.63;;;;;;;;;;5005064;28;20021;-91
2022/03/15 13:28:16;;;;;;;6.85;1.15;;;;;;;;;;5002398;28;20442;-91
2022/03/15 13:30:43;;;;;;;2.45;0.30;;;;;;;;;;5003529;28;20036;-91
2022/03/15 13:33:09;;;;;;;5.43;0.73;;;;;;;;;;5004215;28;20037;-89
2022/03/15 13:35:35;;;;;;;6.13;0.52;;;;;;;;;;5019298;28;20503;-90
2022/03/15 13:38:14;;;;;;;10.85;0.63;;;;;;;;;;4992736;28;20128;-85
2022/03/15 13:40:40;;;;;;;3.33;0.30;;;;;;;;;;5014281;28;20029;-88
2022/03/15 13:43:06;;;;;;;6.95;0.50;;;;;;;;;;4997892;28;20508;-87
2022/03/15 13:45:34;;;;;;;3.72;0.47;;;;;;;;;;5001244;28;20046;-87
2022/03/15 13:48:00;;;;;;;24.77;2.25;;;;;;;;;;5002365;28;20034;-89
2022/03/15 13:50:28;;;;;;;8.80;0.63;;;;;;;;;;4975416;28;20132;-88
2022/03/15 13:52:53;;;;;;;16.75;1.65;;;;;;;;;;4995357;28;20025;-89
2022/03/15 13:55:27;;;;;;;5.28;0.93;;;;;;;;;;5009190;28;20053;-90
2022/03/15 13:57:53;;;;;;;5.53;0.52;;;;;;;;;;5023089;28;20516;-89
2022/03/15 14:00:21;;;;;;;4.40;0.40;;;;;;;;;;5000788;28;20053;-91
2022/03/15 14:02:52;;;;;;;5.18;0.75;;;;;;;;;;5017990;28;20021;-87
2022/03/15 14:05:23;;;;;;;3.35;0.40;;;;;;;;;;4987216;28;20033;-88
2022/03/15 14:08:03;;;;;;;5.47;0.40;;;;;;;;;;4987722;28;20038;-87
2022/03/15 14:10:28;;;;;;;2.67;0.40;;;;;;;;;;5003288;28;20057;-90
2022/03/15 14:12:55;;;;;;;5.43;0.40;;;;;;;;;;4991339;28;20072;-90
2022/03/15 14:15:24;;;;;;;5.65;0.50;;;;;;;;;;4973677;28;20651;-88
2022/03/15 14:18:10;;;;;;;3.35;0.50;;;;;;;;;;5004277;28;20045;-88
2022/03/15 14:20:42;;;;;;;3.55;0.50;;;;;;;;;;5004847;28;20045;-88
2022/03/15 14:23:10;;;;;;;6.45;0.70;;;;;;;;;;5020711;28;20036;-86
2022/03/15 14:25:36;;;;;;;4.25;0.80;;;;;;;;;;5023464;28;20108;-87
2022/03/15 14:28:03;;;;;;;1.83;0.32;;;;;;;;;;5000552;28;20033;-89
2022/03/15 14:30:30;;;;;;;3.42;0.70;;;;;;;;;;5002791;28;20100;-89
2022/03/15 14:33:01;;;;;;;16.33;1.25;;;;;;;;;;5001423;28;20021;-89
2022/03/15 14:35:34;;;;;;;8.40;1.13;;;;;;;;;;5005903;28;20449;-89
2022/03/15 14:38:13;;;;;;;3.55;0.40;;;;;;;;;;5001446;28;20085;-90
2022/03/15 14:40:53;;;;;;;6.68;0.73;;;;;;;;;;5002907;28;20056;-89
2022/03/15 14:43:28;;;;;;;8.75;1.00;;;;;;;;;;5023629;28;20725;-88
2022/03/15 14:45:54;;;;;;;7.10;1.15;;;;;;;;;;4998707;28;20022;-85
2022/03/15 14:48:25;;;;;;;7.05;0.90;;;;;;;;;;5001569;28;20034;-87
2022/03/15 14:50:54;;;;;;;4.25;0.40;;;;;;;;;;4993116;28;20049;-87
2022/03/15 14:53:25;;;;;;;10.63;1.42;;;;;;;;;;5006303;28;20033;-87
2022/03/15 14:55:51;;;;;;;3.78;0.45;;;;;;;;;;5026190;28;20025;-87